sensor_id;sensor_type;location;lat;lon;timestamp;P1;durP1;ratioP1;P2;durP2;ratioP2
9918;SDS011;4998;51.024;13.828;2022-08-02T00:01:42;1.40;;;1.30;;
9918;SDS011;4998;51.024;13.828;2022-08-02T00:04:09;1.33;;;1.23;;
9918;SDS011;4998;51.024;13.828;2022-08-02T00:06:38;1.20;;;1.10;;
9918;SDS011;4998;51.024;13.828;2022-08-02T00:09:05;1.37;;;1.20;;
9918;SDS011;4998;51.024;13.828;2022-08-02T00:11:32;1.00;;;1.00;;
9918;SDS011;4998;51.024;13.828;2022-08-02T00:13:59;1.00;;;1.00;;
9918;SDS011;4998;51.024;13.828;2022-08-02T00:16:26;1.00;;;1.00;;
9918;SDS011;4998;51.024;13.828;2022-08-02T00:18:53;1.30;;;1.20;;
9918;SDS011;4998;51.024;13.828;2022-08-02T00:21:20;0.90;;;0.90;;
9918;SDS011;4998;51.024;13.828;2022-08-02T00:23:48;1.57;;;1.20;;
9918;SDS011;4998;51.024;13.828;2022-08-02T00:26:15;1.27;;;1.20;;
9918;SDS011;4998;51.024;13.828;2022-08-02T00:28:42;1.13;;;1.10;;
9918;SDS011;4998;51.024;13.828;2022-08-02T00:31:09;1.10;;;1.00;;
9918;SDS011;4998;51.024;13.828;2022-08-02T00:33:37;1.10;;;1.10;;
9918;SDS011;4998;51.024;13.828;2022-08-02T00:36:04;1.03;;;1.03;;
9918;SDS011;4998;51.024;13.828;2022-08-02T00:38:31;1.17;;;1.17;;
9918;SDS011;4998;51.024;13.828;2022-08-02T00:40:59;2.50;;;1.10;;
9918;SDS011;4998;51.024;13.828;2022-08-02T00:43:26;1.03;;;1.03;;
9918;SDS011;4998;51.024;13.828;2022-08-02T00:45:53;1.20;;;1.20;;
9918;SDS011;4998;51.024;13.828;2022-08-02T00:48:22;1.00;;;1.00;;
9918;SDS011;4998;51.024;13.828;2022-08-02T00:50:49;1.10;;;1.10;;
9918;SDS011;4998;51.024;13.828;2022-08-02T00:53:16;1.10;;;1.10;;
9918;SDS011;4998;51.024;13.828;2022-08-02T00:55:43;1.17;;;1.17;;
9918;SDS011;4998;51.024;13.828;2022-08-02T00:58:11;1.10;;;1.10;;
9918;SDS011;4998;51.024;13.828;2022-08-02T01:00:38;1.63;;;1.07;;
9918;SDS011;4998;51.024;13.828;2022-08-02T01:03:05;1.40;;;1.30;;
9918;SDS011;4998;51.024;13.828;2022-08-02T01:05:32;1.37;;;1.20;;
9918;SDS011;4998;51.024;13.828;2022-08-02T01:07:59;1.10;;;1.00;;
9918;SDS011;4998;51.024;13.828;2022-08-02T01:10:27;1.40;;;1.30;;
9918;SDS011;4998;51.024;13.828;2022-08-02T01:12:54;1.00;;;1.00;;
9918;SDS011;4998;51.024;13.828;2022-08-02T01:15:22;1.73;;;1.30;;
9918;SDS011;4998;51.024;13.828;2022-08-02T01:17:51;1.40;;;1.30;;
9918;SDS011;4998;51.024;13.828;2022-08-02T01:20:35;2.23;;;1.10;;
9918;SDS011;4998;51.024;13.828;2022-08-02T01:23:17;1.10;;;1.10;;
9918;SDS011;4998;51.024;13.828;2022-08-02T01:26:02;1.60;;;1.50;;
9918;SDS011;4998;51.024;13.828;2022-08-02T01:28:45;1.30;;;1.20;;
9918;SDS011;4998;51.024;13.828;2022-08-02T01:31:18;1.20;;;1.20;;
9918;SDS011;4998;51.024;13.828;2022-08-02T01:33:51;1.60;;;1.50;;
9918;SDS011;4998;51.024;13.828;2022-08-02T01:36:22;1.23;;;1.23;;
9918;SDS011;4998;51.024;13.828;2022-08-02T01:38:53;1.20;;;1.20;;
9918;SDS011;4998;51.024;13.828;2022-08-02T01:41:22;1.53;;;1.30;;
9918;SDS011;4998;51.024;13.828;2022-08-02T01:43:54;2.73;;;1.20;;
9918;SDS011;4998;51.024;13.828;2022-08-02T01:46:24;1.30;;;1.20;;
9918;SDS011;4998;51.024;13.828;2022-08-02T01:48:55;1.30;;;1.30;;
9918;SDS011;4998;51.024;13.828;2022-08-02T01:51:23;1.63;;;1.20;;
9918;SDS011;4998;51.024;13.828;2022-08-02T01:54:06;1.40;;;1.30;;
9918;SDS011;4998;51.024;13.828;2022-08-02T01:56:36;1.20;;;1.20;;
9918;SDS011;4998;51.024;13.828;2022-08-02T01:59:06;1.50;;;1.40;;
9918;SDS011;4998;51.024;13.828;2022-08-02T02:01:36;1.73;;;1.30;;
9918;SDS011;4998;51.024;13.828;2022-08-02T02:04:04;1.10;;;1.10;;
9918;SDS011;4998;51.024;13.828;2022-08-02T02:06:34;1.37;;;1.30;;
9918;SDS011;4998;51.024;13.828;2022-08-02T02:09:02;1.60;;;1.40;;
9918;SDS011;4998;51.024;13.828;2022-08-02T02:11:31;1.40;;;1.30;;
9918;SDS011;4998;51.024;13.828;2022-08-02T02:13:59;1.60;;;1.50;;
9918;SDS011;4998;51.024;13.828;2022-08-02T02:16:29;1.50;;;1.37;;
9918;SDS011;4998;51.024;13.828;2022-08-02T02:18:58;1.40;;;1.30;;
9918;SDS011;4998;51.024;13.828;2022-08-02T02:21:28;2.00;;;1.50;;
9918;SDS011;4998;51.024;13.828;2022-08-02T02:23:55;1.23;;;1.23;;
9918;SDS011;4998;51.024;13.828;2022-08-02T02:26:22;1.87;;;1.40;;
9918;SDS011;4998;51.024;13.828;2022-08-02T02:28:49;1.23;;;1.23;;
9918;SDS011;4998;51.024;13.828;2022-08-02T02:31:17;1.20;;;1.20;;
9918;SDS011;4998;51.024;13.828;2022-08-02T02:33:49;1.70;;;1.60;;
9918;SDS011;4998;51.024;13.828;2022-08-02T02:36:19;2.23;;;1.20;;
9918;SDS011;4998;51.024;13.828;2022-08-02T02:38:47;1.23;;;1.23;;
9918;SDS011;4998;51.024;13.828;2022-08-02T02:41:17;1.30;;;1.30;;
9918;SDS011;4998;51.024;13.828;2022-08-02T02:43:46;1.40;;;1.30;;
9918;SDS011;4998;51.024;13.828;2022-08-02T02:46:14;1.23;;;1.13;;
9918;SDS011;4998;51.024;13.828;2022-08-02T02:48:45;1.40;;;1.30;;
9918;SDS011;4998;51.024;13.828;2022-08-02T02:51:14;1.37;;;1.27;;
9918;SDS011;4998;51.024;13.828;2022-08-02T02:53:41;3.10;;;1.33;;
9918;SDS011;4998;51.024;13.828;2022-08-02T02:56:11;1.40;;;1.40;;
9918;SDS011;4998;51.024;13.828;2022-08-02T02:58:38;1.20;;;1.20;;
9918;SDS011;4998;51.024;13.828;2022-08-02T03:01:05;1.70;;;1.60;;
9918;SDS011;4998;51.024;13.828;2022-08-02T03:03:50;1.13;;;1.10;;
9918;SDS011;4998;51.024;13.828;2022-08-02T03:06:19;1.30;;;1.30;;
9918;SDS011;4998;51.024;13.828;2022-08-02T03:08:47;1.30;;;1.20;;
9918;SDS011;4998;51.024;13.828;2022-08-02T03:11:14;1.33;;;1.20;;
9918;SDS011;4998;51.024;13.828;2022-08-02T03:13:42;1.27;;;1.27;;
9918;SDS011;4998;51.024;13.828;2022-08-02T03:16:10;1.20;;;1.20;;
9918;SDS011;4998;51.024;13.828;2022-08-02T03:18:37;1.40;;;1.30;;
9918;SDS011;4998;51.024;13.828;2022-08-02T03:21:07;1.47;;;1.37;;
9918;SDS011;4998;51.024;13.828;2022-08-02T03:23:37;2.23;;;1.57;;
9918;SDS011;4998;51.024;13.828;2022-08-02T03:26:04;1.60;;;1.50;;
9918;SDS011;4998;51.024;13.828;2022-08-02T03:28:31;1.57;;;1.40;;
9918;SDS011;4998;51.024;13.828;2022-08-02T03:30:58;1.77;;;1.60;;
9918;SDS011;4998;51.024;13.828;2022-08-02T03:33:26;1.77;;;1.67;;
9918;SDS011;4998;51.024;13.828;2022-08-02T03:35:56;1.60;;;1.50;;
9918;SDS011;4998;51.024;13.828;2022-08-02T03:38:26;1.50;;;1.40;;
9918;SDS011;4998;51.024;13.828;2022-08-02T03:40:55;1.50;;;1.40;;
9918;SDS011;4998;51.024;13.828;2022-08-02T03:43:23;3.53;;;1.60;;
9918;SDS011;4998;51.024;13.828;2022-08-02T03:45:50;1.90;;;1.70;;
9918;SDS011;4998;51.024;13.828;2022-08-02T03:48:19;1.40;;;1.30;;
9918;SDS011;4998;51.024;13.828;2022-08-02T03:50:46;2.30;;;1.73;;
9918;SDS011;4998;51.024;13.828;2022-08-02T03:53:14;1.50;;;1.43;;
9918;SDS011;4998;51.024;13.828;2022-08-02T03:55:42;1.40;;;1.30;;
9918;SDS011;4998;51.024;13.828;2022-08-02T03:58:16;1.60;;;1.50;;
9918;SDS011;4998;51.024;13.828;2022-08-02T04:00:44;1.60;;;1.50;;
9918;SDS011;4998;51.024;13.828;2022-08-02T04:03:11;1.60;;;1.50;;
9918;SDS011;4998;51.024;13.828;2022-08-02T04:05:38;1.70;;;1.60;;
9918;SDS011;4998;51.024;13.828;2022-08-02T04:08:05;1.20;;;1.20;;
9918;SDS011;4998;51.024;13.828;2022-08-02T04:10:32;1.63;;;1.40;;
9918;SDS011;4998;51.024;13.828;2022-08-02T04:13:21;1.50;;;1.40;;
9918;SDS011;4998;51.024;13.828;2022-08-02T04:15:49;1.83;;;1.40;;
9918;SDS011;4998;51.024;13.828;2022-08-02T04:18:21;1.70;;;1.60;;
9918;SDS011;4998;51.024;13.828;2022-08-02T04:20:51;1.40;;;1.40;;
9918;SDS011;4998;51.024;13.828;2022-08-02T04:23:20;1.40;;;1.30;;
9918;SDS011;4998;51.024;13.828;2022-08-02T04:25:50;1.80;;;1.53;;
9918;SDS011;4998;51.024;13.828;2022-08-02T04:28:20;1.70;;;1.60;;
9918;SDS011;4998;51.024;13.828;2022-08-02T04:30:48;2.73;;;1.50;;
9918;SDS011;4998;51.024;13.828;2022-08-02T04:33:16;1.70;;;1.50;;
9918;SDS011;4998;51.024;13.828;2022-08-02T04:35:43;4.23;;;1.70;;
9918;SDS011;4998;51.024;13.828;2022-08-02T04:38:11;1.60;;;1.50;;
9918;SDS011;4998;51.024;13.828;2022-08-02T04:40:39;1.80;;;1.70;;
9918;SDS011;4998;51.024;13.828;2022-08-02T04:43:06;2.00;;;1.80;;
9918;SDS011;4998;51.024;13.828;2022-08-02T04:45:34;1.50;;;1.40;;
9918;SDS011;4998;51.024;13.828;2022-08-02T04:48:02;1.70;;;1.60;;
9918;SDS011;4998;51.024;13.828;2022-08-02T04:50:29;1.63;;;1.40;;
9918;SDS011;4998;51.024;13.828;2022-08-02T04:52:56;3.37;;;1.50;;
9918;SDS011;4998;51.024;13.828;2022-08-02T04:55:23;1.83;;;1.70;;
9918;SDS011;4998;51.024;13.828;2022-08-02T04:57:52;1.70;;;1.60;;
9918;SDS011;4998;51.024;13.828;2022-08-02T05:00:20;1.67;;;1.57;;
9918;SDS011;4998;51.024;13.828;2022-08-02T05:02:48;1.87;;;1.77;;
9918;SDS011;4998;51.024;13.828;2022-08-02T05:05:16;2.50;;;1.60;;
9918;SDS011;4998;51.024;13.828;2022-08-02T05:07:43;1.60;;;1.50;;
9918;SDS011;4998;51.024;13.828;2022-08-02T05:10:11;1.60;;;1.50;;
9918;SDS011;4998;51.024;13.828;2022-08-02T05:12:38;1.30;;;1.30;;
9918;SDS011;4998;51.024;13.828;2022-08-02T05:15:05;2.07;;;1.60;;
9918;SDS011;4998;51.024;13.828;2022-08-02T05:17:33;1.57;;;1.50;;
9918;SDS011;4998;51.024;13.828;2022-08-02T05:20:02;1.63;;;1.53;;
9918;SDS011;4998;51.024;13.828;2022-08-02T05:22:30;2.00;;;1.90;;
9918;SDS011;4998;51.024;13.828;2022-08-02T05:24:57;1.70;;;1.60;;
9918;SDS011;4998;51.024;13.828;2022-08-02T05:27:23;10.50;;;2.27;;
9918;SDS011;4998;51.024;13.828;2022-08-02T05:29:50;1.70;;;1.60;;
9918;SDS011;4998;51.024;13.828;2022-08-02T05:32:18;2.03;;;1.80;;
9918;SDS011;4998;51.024;13.828;2022-08-02T05:34:46;1.83;;;1.73;;
9918;SDS011;4998;51.024;13.828;2022-08-02T05:37:14;3.10;;;1.80;;
9918;SDS011;4998;51.024;13.828;2022-08-02T05:39:41;1.70;;;1.60;;
9918;SDS011;4998;51.024;13.828;2022-08-02T05:42:09;1.70;;;1.60;;
9918;SDS011;4998;51.024;13.828;2022-08-02T05:44:36;2.03;;;1.50;;
9918;SDS011;4998;51.024;13.828;2022-08-02T05:47:03;3.57;;;1.90;;
9918;SDS011;4998;51.024;13.828;2022-08-02T05:49:30;1.50;;;1.40;;
9918;SDS011;4998;51.024;13.828;2022-08-02T05:51:59;1.60;;;1.50;;
9918;SDS011;4998;51.024;13.828;2022-08-02T05:54:35;1.73;;;1.63;;
9918;SDS011;4998;51.024;13.828;2022-08-02T05:57:13;2.07;;;1.60;;
9918;SDS011;4998;51.024;13.828;2022-08-02T05:59:47;3.83;;;1.70;;
9918;SDS011;4998;51.024;13.828;2022-08-02T06:02:28;2.60;;;1.57;;
9918;SDS011;4998;51.024;13.828;2022-08-02T06:05:02;3.40;;;1.60;;
9918;SDS011;4998;51.024;13.828;2022-08-02T06:07:31;1.87;;;1.77;;
9918;SDS011;4998;51.024;13.828;2022-08-02T06:10:03;1.70;;;1.60;;
9918;SDS011;4998;51.024;13.828;2022-08-02T06:12:31;1.77;;;1.67;;
9918;SDS011;4998;51.024;13.828;2022-08-02T06:15:02;3.00;;;1.50;;
9918;SDS011;4998;51.024;13.828;2022-08-02T06:17:30;1.43;;;1.40;;
9918;SDS011;4998;51.024;13.828;2022-08-02T06:19:58;2.00;;;1.80;;
9918;SDS011;4998;51.024;13.828;2022-08-02T06:22:27;1.60;;;1.50;;
9918;SDS011;4998;51.024;13.828;2022-08-02T06:24:55;3.03;;;1.80;;
9918;SDS011;4998;51.024;13.828;2022-08-02T06:27:26;2.20;;;2.00;;
9918;SDS011;4998;51.024;13.828;2022-08-02T06:29:54;3.00;;;2.00;;
9918;SDS011;4998;51.024;13.828;2022-08-02T06:32:21;2.23;;;2.10;;
9918;SDS011;4998;51.024;13.828;2022-08-02T06:34:48;2.90;;;2.13;;
9918;SDS011;4998;51.024;13.828;2022-08-02T06:37:18;2.40;;;2.30;;
9918;SDS011;4998;51.024;13.828;2022-08-02T06:39:53;1.90;;;1.80;;
9918;SDS011;4998;51.024;13.828;2022-08-02T06:42:29;2.37;;;2.17;;
9918;SDS011;4998;51.024;13.828;2022-08-02T06:45:02;2.00;;;1.90;;
9918;SDS011;4998;51.024;13.828;2022-08-02T06:47:30;4.77;;;2.07;;
9918;SDS011;4998;51.024;13.828;2022-08-02T06:49:57;2.30;;;2.10;;
9918;SDS011;4998;51.024;13.828;2022-08-02T06:52:24;2.20;;;2.10;;
9918;SDS011;4998;51.024;13.828;2022-08-02T06:54:55;5.73;;;1.80;;
9918;SDS011;4998;51.024;13.828;2022-08-02T06:57:22;1.90;;;1.80;;
9918;SDS011;4998;51.024;13.828;2022-08-02T06:59:51;2.30;;;2.20;;
9918;SDS011;4998;51.024;13.828;2022-08-02T07:02:18;2.83;;;1.90;;
9918;SDS011;4998;51.024;13.828;2022-08-02T07:04:45;2.77;;;2.30;;
9918;SDS011;4998;51.024;13.828;2022-08-02T07:07:12;2.40;;;2.20;;
9918;SDS011;4998;51.024;13.828;2022-08-02T07:09:39;2.30;;;1.70;;
9918;SDS011;4998;51.024;13.828;2022-08-02T07:12:06;1.80;;;1.70;;
9918;SDS011;4998;51.024;13.828;2022-08-02T07:14:33;2.20;;;2.10;;
9918;SDS011;4998;51.024;13.828;2022-08-02T07:17:02;2.77;;;2.20;;
9918;SDS011;4998;51.024;13.828;2022-08-02T07:19:28;2.83;;;1.80;;
9918;SDS011;4998;51.024;13.828;2022-08-02T07:21:55;2.30;;;2.07;;
9918;SDS011;4998;51.024;13.828;2022-08-02T07:24:22;3.10;;;2.33;;
9918;SDS011;4998;51.024;13.828;2022-08-02T07:26:49;2.13;;;1.93;;
9918;SDS011;4998;51.024;13.828;2022-08-02T07:29:16;4.63;;;2.10;;
9918;SDS011;4998;51.024;13.828;2022-08-02T07:31:43;2.17;;;2.00;;
9918;SDS011;4998;51.024;13.828;2022-08-02T07:34:12;2.67;;;2.20;;
9918;SDS011;4998;51.024;13.828;2022-08-02T07:36:39;2.43;;;1.70;;
9918;SDS011;4998;51.024;13.828;2022-08-02T07:39:06;1.73;;;1.63;;
9918;SDS011;4998;51.024;13.828;2022-08-02T07:41:33;4.30;;;1.90;;
9918;SDS011;4998;51.024;13.828;2022-08-02T07:44:00;2.23;;;2.03;;
9918;SDS011;4998;51.024;13.828;2022-08-02T07:46:27;1.80;;;1.70;;
9918;SDS011;4998;51.024;13.828;2022-08-02T07:48:54;1.93;;;1.83;;
9918;SDS011;4998;51.024;13.828;2022-08-02T07:51:22;3.03;;;1.80;;
9918;SDS011;4998;51.024;13.828;2022-08-02T07:53:49;2.20;;;2.00;;
9918;SDS011;4998;51.024;13.828;2022-08-02T07:56:16;2.13;;;1.73;;
9918;SDS011;4998;51.024;13.828;2022-08-02T07:58:43;3.60;;;1.93;;
9918;SDS011;4998;51.024;13.828;2022-08-02T08:01:10;3.73;;;1.80;;
9918;SDS011;4998;51.024;13.828;2022-08-02T08:03:37;2.20;;;2.00;;
9918;SDS011;4998;51.024;13.828;2022-08-02T08:06:04;3.10;;;2.10;;
9918;SDS011;4998;51.024;13.828;2022-08-02T08:08:32;2.40;;;1.77;;
9918;SDS011;4998;51.024;13.828;2022-08-02T08:10:59;2.50;;;2.00;;
9918;SDS011;4998;51.024;13.828;2022-08-02T08:13:26;3.30;;;1.73;;
9918;SDS011;4998;51.024;13.828;2022-08-02T08:15:53;1.80;;;1.70;;
9918;SDS011;4998;51.024;13.828;2022-08-02T08:18:20;1.77;;;1.67;;
9918;SDS011;4998;51.024;13.828;2022-08-02T08:20:47;2.00;;;1.90;;
9918;SDS011;4998;51.024;13.828;2022-08-02T08:23:15;3.07;;;1.77;;
9918;SDS011;4998;51.024;13.828;2022-08-02T08:25:43;1.47;;;1.37;;
9918;SDS011;4998;51.024;13.828;2022-08-02T08:28:10;1.60;;;1.50;;
9918;SDS011;4998;51.024;13.828;2022-08-02T08:30:38;2.37;;;1.77;;
9918;SDS011;4998;51.024;13.828;2022-08-02T08:33:06;1.80;;;1.70;;
9918;SDS011;4998;51.024;13.828;2022-08-02T08:35:33;1.50;;;1.40;;
9918;SDS011;4998;51.024;13.828;2022-08-02T08:38:00;1.70;;;1.60;;
9918;SDS011;4998;51.024;13.828;2022-08-02T08:40:27;1.50;;;1.40;;
9918;SDS011;4998;51.024;13.828;2022-08-02T08:42:55;1.77;;;1.47;;
9918;SDS011;4998;51.024;13.828;2022-08-02T08:45:22;1.90;;;1.80;;
9918;SDS011;4998;51.024;13.828;2022-08-02T08:47:50;1.40;;;1.33;;
9918;SDS011;4998;51.024;13.828;2022-08-02T08:50:22;2.57;;;1.33;;
9918;SDS011;4998;51.024;13.828;2022-08-02T08:52:52;1.60;;;1.50;;
9918;SDS011;4998;51.024;13.828;2022-08-02T08:55:22;1.80;;;1.70;;
9918;SDS011;4998;51.024;13.828;2022-08-02T08:57:51;1.87;;;1.77;;
9918;SDS011;4998;51.024;13.828;2022-08-02T09:00:21;1.50;;;1.40;;
9918;SDS011;4998;51.024;13.828;2022-08-02T09:02:48;1.70;;;1.60;;
9918;SDS011;4998;51.024;13.828;2022-08-02T09:05:15;2.47;;;2.27;;
9918;SDS011;4998;51.024;13.828;2022-08-02T09:07:44;2.70;;;2.30;;
9918;SDS011;4998;51.024;13.828;2022-08-02T09:10:32;2.20;;;2.10;;
9918;SDS011;4998;51.024;13.828;2022-08-02T09:13:07;2.43;;;2.33;;
9918;SDS011;4998;51.024;13.828;2022-08-02T09:15:41;6.40;;;2.40;;
9918;SDS011;4998;51.024;13.828;2022-08-02T09:18:11;2.40;;;2.20;;
9918;SDS011;4998;51.024;13.828;2022-08-02T09:20:52;2.33;;;1.93;;
9918;SDS011;4998;51.024;13.828;2022-08-02T09:23:21;2.30;;;2.10;;
9918;SDS011;4998;51.024;13.828;2022-08-02T09:25:55;2.07;;;1.93;;
9918;SDS011;4998;51.024;13.828;2022-08-02T09:28:27;2.40;;;2.20;;
9918;SDS011;4998;51.024;13.828;2022-08-02T09:30:57;4.07;;;2.30;;
9918;SDS011;4998;51.024;13.828;2022-08-02T09:33:29;2.00;;;1.90;;
9918;SDS011;4998;51.024;13.828;2022-08-02T09:36:01;2.03;;;1.93;;
9918;SDS011;4998;51.024;13.828;2022-08-02T09:38:31;2.20;;;2.10;;
9918;SDS011;4998;51.024;13.828;2022-08-02T09:40:59;2.07;;;1.97;;
9918;SDS011;4998;51.024;13.828;2022-08-02T09:43:36;2.43;;;2.20;;
9918;SDS011;4998;51.024;13.828;2022-08-02T09:46:12;2.27;;;2.10;;
9918;SDS011;4998;51.024;13.828;2022-08-02T09:48:50;2.07;;;1.97;;
9918;SDS011;4998;51.024;13.828;2022-08-02T09:51:20;2.00;;;1.90;;
9918;SDS011;4998;51.024;13.828;2022-08-02T09:53:48;2.33;;;1.93;;
9918;SDS011;4998;51.024;13.828;2022-08-02T09:56:17;2.40;;;2.20;;
9918;SDS011;4998;51.024;13.828;2022-08-02T09:58:45;2.53;;;2.30;;
9918;SDS011;4998;51.024;13.828;2022-08-02T10:01:14;2.60;;;2.13;;
9918;SDS011;4998;51.024;13.828;2022-08-02T10:03:52;2.70;;;2.50;;
9918;SDS011;4998;51.024;13.828;2022-08-02T10:06:21;2.07;;;1.97;;
9918;SDS011;4998;51.024;13.828;2022-08-02T10:08:48;2.40;;;1.97;;
9918;SDS011;4998;51.024;13.828;2022-08-02T10:11:17;1.90;;;1.80;;
9918;SDS011;4998;51.024;13.828;2022-08-02T10:13:44;1.90;;;1.80;;
9918;SDS011;4998;51.024;13.828;2022-08-02T10:16:12;1.83;;;1.73;;
9918;SDS011;4998;51.024;13.828;2022-08-02T10:18:42;2.40;;;2.30;;
9918;SDS011;4998;51.024;13.828;2022-08-02T10:21:11;1.90;;;1.80;;
9918;SDS011;4998;51.024;13.828;2022-08-02T10:23:40;2.13;;;2.03;;
9918;SDS011;4998;51.024;13.828;2022-08-02T10:26:12;2.23;;;2.13;;
9918;SDS011;4998;51.024;13.828;2022-08-02T10:28:40;3.23;;;2.50;;
9918;SDS011;4998;51.024;13.828;2022-08-02T10:31:08;2.10;;;2.00;;
9918;SDS011;4998;51.024;13.828;2022-08-02T10:33:38;2.00;;;1.90;;
9918;SDS011;4998;51.024;13.828;2022-08-02T10:36:06;1.90;;;1.70;;
9918;SDS011;4998;51.024;13.828;2022-08-02T10:38:35;1.70;;;1.60;;
9918;SDS011;4998;51.024;13.828;2022-08-02T10:41:02;1.73;;;1.60;;
9918;SDS011;4998;51.024;13.828;2022-08-02T10:43:38;1.80;;;1.70;;
9918;SDS011;4998;51.024;13.828;2022-08-02T10:46:19;1.73;;;1.63;;
9918;SDS011;4998;51.024;13.828;2022-08-02T10:51:52;1.60;;;1.50;;
9918;SDS011;4998;51.024;13.828;2022-08-02T10:54:24;1.80;;;1.70;;
9918;SDS011;4998;51.024;13.828;2022-08-02T10:56:52;2.70;;;1.97;;
9918;SDS011;4998;51.024;13.828;2022-08-02T10:59:25;3.73;;;1.53;;
9918;SDS011;4998;51.024;13.828;2022-08-02T11:01:53;1.80;;;1.70;;
9918;SDS011;4998;51.024;13.828;2022-08-02T11:04:28;3.27;;;1.70;;
9918;SDS011;4998;51.024;13.828;2022-08-02T11:07:07;2.10;;;1.70;;
9918;SDS011;4998;51.024;13.828;2022-08-02T11:09:35;1.60;;;1.50;;
9918;SDS011;4998;51.024;13.828;2022-08-02T11:12:05;1.57;;;1.47;;
9918;SDS011;4998;51.024;13.828;2022-08-02T11:14:35;1.80;;;1.70;;
9918;SDS011;4998;51.024;13.828;2022-08-02T11:17:08;1.57;;;1.47;;
9918;SDS011;4998;51.024;13.828;2022-08-02T11:22:43;1.90;;;1.80;;
9918;SDS011;4998;51.024;13.828;2022-08-02T11:25:33;2.70;;;2.00;;
9918;SDS011;4998;51.024;13.828;2022-08-02T11:28:07;1.70;;;1.60;;
9918;SDS011;4998;51.024;13.828;2022-08-02T11:30:36;2.50;;;1.60;;
9918;SDS011;4998;51.024;13.828;2022-08-02T11:33:04;1.77;;;1.67;;
9918;SDS011;4998;51.024;13.828;2022-08-02T11:35:34;1.70;;;1.60;;
9918;SDS011;4998;51.024;13.828;2022-08-02T11:40:47;1.30;;;1.30;;
9918;SDS011;4998;51.024;13.828;2022-08-02T11:43:15;1.80;;;1.50;;
9918;SDS011;4998;51.024;13.828;2022-08-02T11:45:43;1.70;;;1.60;;
9918;SDS011;4998;51.024;13.828;2022-08-02T11:48:10;1.70;;;1.60;;
9918;SDS011;4998;51.024;13.828;2022-08-02T11:50:38;2.00;;;1.30;;
9918;SDS011;4998;51.024;13.828;2022-08-02T11:53:12;12.70;;;2.80;;
9918;SDS011;4998;51.024;13.828;2022-08-02T11:55:39;2.57;;;1.80;;
9918;SDS011;4998;51.024;13.828;2022-08-02T11:58:06;2.77;;;1.57;;
9918;SDS011;4998;51.024;13.828;2022-08-02T12:00:35;1.27;;;1.27;;
9918;SDS011;4998;51.024;13.828;2022-08-02T12:03:03;1.53;;;1.43;;
9918;SDS011;4998;51.024;13.828;2022-08-02T12:05:31;7.00;;;2.50;;
9918;SDS011;4998;51.024;13.828;2022-08-02T12:07:59;1.70;;;1.60;;
9918;SDS011;4998;51.024;13.828;2022-08-02T12:10:30;1.47;;;1.37;;
9918;SDS011;4998;51.024;13.828;2022-08-02T12:12:58;1.77;;;1.50;;
9918;SDS011;4998;51.024;13.828;2022-08-02T12:15:30;1.30;;;1.30;;
9918;SDS011;4998;51.024;13.828;2022-08-02T12:17:58;3.10;;;1.60;;
9918;SDS011;4998;51.024;13.828;2022-08-02T12:20:44;3.47;;;1.50;;
9918;SDS011;4998;51.024;13.828;2022-08-02T12:23:13;1.50;;;1.40;;
9918;SDS011;4998;51.024;13.828;2022-08-02T12:25:40;1.27;;;1.17;;
9918;SDS011;4998;51.024;13.828;2022-08-02T12:28:14;1.60;;;1.50;;
9918;SDS011;4998;51.024;13.828;2022-08-02T12:30:50;5.63;;;1.40;;
9918;SDS011;4998;51.024;13.828;2022-08-02T12:33:18;5.27;;;1.80;;
9918;SDS011;4998;51.024;13.828;2022-08-02T12:35:46;2.50;;;1.50;;
9918;SDS011;4998;51.024;13.828;2022-08-02T12:38:15;2.37;;;1.80;;
9918;SDS011;4998;51.024;13.828;2022-08-02T12:40:42;1.70;;;1.60;;
9918;SDS011;4998;51.024;13.828;2022-08-02T12:43:15;1.27;;;1.27;;
9918;SDS011;4998;51.024;13.828;2022-08-02T12:45:44;1.87;;;1.57;;
9918;SDS011;4998;51.024;13.828;2022-08-02T12:48:13;1.43;;;1.30;;
9918;SDS011;4998;51.024;13.828;2022-08-02T12:50:41;1.97;;;1.40;;
9918;SDS011;4998;51.024;13.828;2022-08-02T12:53:09;1.57;;;1.47;;
9918;SDS011;4998;51.024;13.828;2022-08-02T12:55:47;1.33;;;1.30;;
9918;SDS011;4998;51.024;13.828;2022-08-02T12:58:17;9.50;;;1.30;;
9918;SDS011;4998;51.024;13.828;2022-08-02T13:00:50;1.20;;;1.20;;
9918;SDS011;4998;51.024;13.828;2022-08-02T13:03:18;1.27;;;1.27;;
9918;SDS011;4998;51.024;13.828;2022-08-02T13:05:45;1.63;;;1.40;;
9918;SDS011;4998;51.024;13.828;2022-08-02T13:08:13;1.90;;;1.80;;
9918;SDS011;4998;51.024;13.828;2022-08-02T13:10:40;1.40;;;1.30;;
9918;SDS011;4998;51.024;13.828;2022-08-02T13:13:10;1.40;;;1.30;;
9918;SDS011;4998;51.024;13.828;2022-08-02T13:15:37;1.50;;;1.40;;
9918;SDS011;4998;51.024;13.828;2022-08-02T13:18:04;1.60;;;1.50;;
9918;SDS011;4998;51.024;13.828;2022-08-02T13:20:31;2.40;;;1.67;;
9918;SDS011;4998;51.024;13.828;2022-08-02T13:22:58;1.23;;;1.23;;
9918;SDS011;4998;51.024;13.828;2022-08-02T13:25:25;11.40;;;1.80;;
9918;SDS011;4998;51.024;13.828;2022-08-02T13:27:52;2.50;;;1.23;;
9918;SDS011;4998;51.024;13.828;2022-08-02T13:30:20;2.63;;;1.30;;
9918;SDS011;4998;51.024;13.828;2022-08-02T13:32:47;3.73;;;1.33;;
9918;SDS011;4998;51.024;13.828;2022-08-02T13:35:14;1.20;;;1.20;;
9918;SDS011;4998;51.024;13.828;2022-08-02T13:37:41;1.20;;;1.20;;
9918;SDS011;4998;51.024;13.828;2022-08-02T13:40:09;8.90;;;1.97;;
9918;SDS011;4998;51.024;13.828;2022-08-02T13:42:36;1.60;;;1.50;;
9918;SDS011;4998;51.024;13.828;2022-08-02T13:45:04;1.37;;;1.27;;
9918;SDS011;4998;51.024;13.828;2022-08-02T13:47:33;1.70;;;1.60;;
9918;SDS011;4998;51.024;13.828;2022-08-02T13:50:00;3.50;;;1.50;;
9918;SDS011;4998;51.024;13.828;2022-08-02T13:52:27;2.03;;;1.47;;
9918;SDS011;4998;51.024;13.828;2022-08-02T13:54:54;1.20;;;1.13;;
9918;SDS011;4998;51.024;13.828;2022-08-02T13:57:21;1.40;;;1.30;;
9918;SDS011;4998;51.024;13.828;2022-08-02T13:59:47;1.50;;;1.40;;
9918;SDS011;4998;51.024;13.828;2022-08-02T14:02:15;3.33;;;1.50;;
9918;SDS011;4998;51.024;13.828;2022-08-02T14:04:43;1.80;;;1.30;;
9918;SDS011;4998;51.024;13.828;2022-08-02T14:07:10;1.20;;;1.20;;
9918;SDS011;4998;51.024;13.828;2022-08-02T14:09:38;1.20;;;1.20;;
9918;SDS011;4998;51.024;13.828;2022-08-02T14:12:05;1.40;;;1.30;;
9918;SDS011;4998;51.024;13.828;2022-08-02T14:14:33;1.50;;;1.40;;
9918;SDS011;4998;51.024;13.828;2022-08-02T14:17:00;1.20;;;1.20;;
9918;SDS011;4998;51.024;13.828;2022-08-02T14:19:27;2.40;;;1.10;;
9918;SDS011;4998;51.024;13.828;2022-08-02T14:21:56;1.33;;;1.23;;
9918;SDS011;4998;51.024;13.828;2022-08-02T14:24:23;1.20;;;1.20;;
9918;SDS011;4998;51.024;13.828;2022-08-02T14:26:50;1.50;;;1.40;;
9918;SDS011;4998;51.024;13.828;2022-08-02T14:29:17;1.37;;;1.33;;
9918;SDS011;4998;51.024;13.828;2022-08-02T14:31:43;3.17;;;1.40;;
9918;SDS011;4998;51.024;13.828;2022-08-02T14:34:10;1.93;;;1.50;;
9918;SDS011;4998;51.024;13.828;2022-08-02T14:36:38;1.30;;;1.30;;
9918;SDS011;4998;51.024;13.828;2022-08-02T14:39:07;1.77;;;1.67;;
9918;SDS011;4998;51.024;13.828;2022-08-02T14:41:34;1.70;;;1.60;;
9918;SDS011;4998;51.024;13.828;2022-08-02T14:44:02;1.50;;;1.40;;
9918;SDS011;4998;51.024;13.828;2022-08-02T14:46:30;1.80;;;1.60;;
9918;SDS011;4998;51.024;13.828;2022-08-02T14:48:58;1.50;;;1.50;;
9918;SDS011;4998;51.024;13.828;2022-08-02T14:51:27;1.50;;;1.40;;
9918;SDS011;4998;51.024;13.828;2022-08-02T14:53:54;1.63;;;1.53;;
9918;SDS011;4998;51.024;13.828;2022-08-02T14:56:23;1.63;;;1.53;;
9918;SDS011;4998;51.024;13.828;2022-08-02T14:58:50;1.73;;;1.63;;
9918;SDS011;4998;51.024;13.828;2022-08-02T15:01:17;1.50;;;1.40;;
9918;SDS011;4998;51.024;13.828;2022-08-02T15:03:44;1.60;;;1.50;;
9918;SDS011;4998;51.024;13.828;2022-08-02T15:06:11;2.07;;;1.70;;
9918;SDS011;4998;51.024;13.828;2022-08-02T15:08:38;1.47;;;1.37;;
9918;SDS011;4998;51.024;13.828;2022-08-02T15:11:05;1.53;;;1.40;;
9918;SDS011;4998;51.024;13.828;2022-08-02T15:13:34;1.30;;;1.30;;
9918;SDS011;4998;51.024;13.828;2022-08-02T15:16:01;1.37;;;1.37;;
9918;SDS011;4998;51.024;13.828;2022-08-02T15:18:28;1.53;;;1.20;;
9918;SDS011;4998;51.024;13.828;2022-08-02T15:20:55;1.37;;;1.30;;